PAYA/YAK METAR and TAF weather

Enter ICAO airport designator
Station Type Date Time Source
PAYA METAR 2022/09/26 10:21 UTC NOAA

PAYA 261021Z AUTO 09012KT 4SM +RA BR OVC008 12/11 A2946 RMK AO2 P0014 T01170111 TSNO $


Station Type Date Time Source
PAYA Decoded METAR 2022/09/26 10:21 UTC NOAA

YAKUTAT AIRPORT, AK, United States (PAYA) 59-30N 139-40W 9M
Sep 26, 2022 - 06:21 AM EDT / 2022.09.26 1021 UTC
Wind: from the E (090 degrees) at 14 MPH (12 KT):0
Visibility: 4 mile(s):0
Sky conditions: overcast
Weather: heavy rain; mist
Precipitation last hour: 0.14 inches
Temperature: 53.1 F (11.7 C)
Dew Point: 52.0 F (11.1 C)
Relative Humidity: 96%
Pressure (altimeter): 29.46 in. Hg (997 hPa)
ob: PAYA 261021Z AUTO 09012KT 4SM +RA BR OVC008 12/11 A2946 RMK AO2 P0014 T01170111 TSNO
cycle: 10

Station Type Date Time Source
PAYA TAF 2022/09/26 06:45 UTC NOAA

TAF PAYA 260541Z 2606/2706 02005KT 6SM -RA FEW025 OVC060 WS020/13035KT
FM260900 10015G30KT 4SM -RA BKN025 WS020/16050KT
FM261200 11025G45KT 3SM RA BR BKN010 WS020/17055KT
FM261800 12020G35KT 4SM -RA BR BKN015 WS020/17040KT
AMD LTD TO CLD VIS AND WIND

Example: see airport list